Time;durP1;ratioP1;P1;durP2;ratioP2;P2;SDS_P1;SDS_P2;PMS_P1;PMS_P2;Temp;Humidity;BMP_temperature;BMP_pressure;BME280_temperature;BME280_humidity;BME280_pressure;Samples;Min_cycle;Max_cycle;Signal;HPM_P1;HPM_P2
2022/06/21 00:02:12;;;;;;;10.17;3.40;;;10.80;99.90;;;;;;5008771;28;20237;-84
2022/06/21 00:04:39;;;;;;;9.67;4.27;;;10.80;99.90;;;;;;5008906;28;20229;-84
2022/06/21 00:07:07;;;;;;;6.90;3.63;;;10.80;99.90;;;;;;5027318;28;20225;-84
2022/06/21 00:09:33;;;;;;;8.60;4.17;;;10.80;99.90;;;;;;5026438;28;20252;-84
2022/06/21 00:12:01;;;;;;;7.03;3.73;;;10.80;99.90;;;;;;5003230;28;20225;-84
2022/06/21 00:14:28;;;;;;;8.57;3.27;;;10.80;99.90;;;;;;5025776;28;20225;-84
2022/06/21 00:16:55;;;;;;;8.63;3.97;;;10.80;99.90;;;;;;5010038;28;20218;-84
2022/06/21 00:19:24;;;;;;;9.60;4.13;;;10.70;99.90;;;;;;5028123;28;20757;-83
2022/06/21 00:21:51;;;;;;;9.13;4.07;;;10.80;99.90;;;;;;5030152;28;20223;-83
2022/06/21 00:24:18;;;;;;;13.07;4.00;;;10.70;99.90;;;;;;5027393;28;20718;-82
2022/06/21 00:26:47;;;;;;;8.90;3.77;;;10.70;99.90;;;;;;5015643;28;20237;-82
2022/06/21 00:29:16;;;;;;;11.07;3.70;;;10.70;99.90;;;;;;5034827;28;20222;-83
2022/06/21 00:31:47;;;;;;;10.20;3.40;;;10.70;99.90;;;;;;5034244;28;20553;-83
2022/06/21 00:34:17;;;;;;;9.07;3.47;;;10.70;99.90;;;;;;5029899;28;20286;-82
2022/06/21 00:36:45;;;;;;;8.20;3.90;;;10.70;99.90;;;;;;5013890;28;20285;-83
2022/06/21 00:39:14;;;;;;;8.40;4.03;;;10.70;99.90;;;;;;5012338;28;20631;-83
2022/06/21 00:41:45;;;;;;;8.40;4.17;;;10.70;99.90;;;;;;5011767;28;20280;-82
2022/06/21 00:44:19;;;;;;;11.27;4.03;;;10.70;99.90;;;;;;5016996;28;20231;-83
2022/06/21 00:46:50;;;;;;;9.70;4.73;;;10.60;99.90;;;;;;5013411;28;20229;-83
2022/06/21 00:49:22;;;;;;;11.03;4.50;;;10.60;99.90;;;;;;5029930;28;20239;-83
2022/06/21 00:51:51;;;;;;;11.00;4.30;;;10.60;99.90;;;;;;5014048;28;20232;-83
2022/06/21 00:54:23;;;;;;;9.03;4.27;;;10.60;99.90;;;;;;5033032;28;20223;-84
2022/06/21 00:56:56;;;;;;;16.30;4.90;;;10.60;99.90;;;;;;5034077;28;20221;-83
2022/06/21 00:59:27;;;;;;;13.77;4.90;;;10.60;99.90;;;;;;5009830;28;20223;-83
2022/06/21 01:01:58;;;;;;;9.23;4.60;;;10.60;99.90;;;;;;5009321;28;20698;-83
2022/06/21 01:04:31;;;;;;;8.60;4.13;;;10.60;99.90;;;;;;5033362;28;20235;-83
2022/06/21 01:07:01;;;;;;;13.17;5.00;;;10.60;99.90;;;;;;5017872;28;20231;-83
2022/06/21 01:09:33;;;;;;;14.07;5.33;;;10.50;99.90;;;;;;5027276;28;20430;-84
2022/06/21 01:12:05;;;;;;;12.20;5.40;;;10.50;99.90;;;;;;5008166;28;20214;-84
2022/06/21 01:14:35;;;;;;;10.40;5.20;;;10.50;99.90;;;;;;5010903;28;20260;-84
2022/06/21 01:17:03;;;;;;;13.83;5.27;;;10.50;99.90;;;;;;5025070;28;20296;-84
2022/06/21 01:19:39;;;;;;;13.30;5.30;;;10.50;99.90;;;;;;5008497;28;20231;-83
2022/06/21 01:22:20;;;;;;;12.83;5.70;;;10.40;99.90;;;;;;5028434;28;20224;-84
2022/06/21 01:24:55;;;;;;;15.73;5.93;;;10.40;99.90;;;;;;5027722;28;20225;-83
2022/06/21 01:27:23;;;;;;;10.43;5.40;;;10.40;99.90;;;;;;5030913;28;20225;-82
2022/06/21 01:29:52;;;;;;;12.73;5.63;;;10.40;99.90;;;;;;5015643;28;20256;-83
2022/06/21 01:32:19;;;;;;;12.87;5.50;;;10.30;99.90;;;;;;5026547;28;20235;-83
2022/06/21 01:34:46;;;;;;;12.33;5.40;;;10.30;99.90;;;;;;5018781;28;21039;-84
2022/06/21 01:37:18;;;;;;;13.37;5.40;;;10.30;99.90;;;;;;5017666;28;20282;-84
2022/06/21 01:39:52;;;;;;;15.23;4.90;;;10.30;99.90;;;;;;5015739;28;20263;-84
2022/06/21 01:42:22;;;;;;;12.60;5.20;;;10.30;99.90;;;;;;5030827;28;20248;-84
2022/06/21 01:44:55;;;;;;;11.13;5.17;;;10.30;99.90;;;;;;5009679;28;20231;-83
2022/06/21 01:47:25;;;;;;;16.10;5.73;;;10.30;99.90;;;;;;5014662;28;20220;-83
2022/06/21 01:49:57;;;;;;;15.27;4.87;;;10.20;99.90;;;;;;5015811;28;20228;-83
2022/06/21 01:52:26;;;;;;;13.70;5.40;;;10.20;99.90;;;;;;5017695;28;20243;-82
2022/06/21 01:54:59;;;;;;;10.70;5.20;;;10.20;99.90;;;;;;5032265;28;20225;-83
2022/06/21 01:57:28;;;;;;;11.90;5.40;;;10.20;99.90;;;;;;5023818;28;20607;-82
2022/06/21 01:59:58;;;;;;;15.00;4.60;;;10.20;99.90;;;;;;5038059;28;20228;-82
2022/06/21 02:02:30;;;;;;;15.97;6.10;;;10.20;99.90;;;;;;5035195;28;20498;-83
2022/06/21 02:05:01;;;;;;;14.93;5.17;;;10.20;99.90;;;;;;5033593;28;20220;-84
2022/06/21 02:07:32;;;;;;;11.63;4.70;;;10.20;99.90;;;;;;5020551;28;20355;-84
2022/06/21 02:10:08;;;;;;;14.77;5.23;;;10.20;99.90;;;;;;5006665;28;20226;-84
2022/06/21 02:12:36;;;;;;;15.43;5.43;;;10.10;99.90;;;;;;5034970;28;20232;-83
2022/06/21 02:15:11;;;;;;;19.10;5.67;;;10.10;99.90;;;;;;5014338;28;21532;-83
2022/06/21 02:17:42;;;;;;;13.10;5.90;;;10.10;99.90;;;;;;5014190;28;20229;-84
2022/06/21 02:20:18;;;;;;;12.43;5.43;;;10.10;99.90;;;;;;5015129;28;20233;-83
2022/06/21 02:22:45;;;;;;;14.53;5.17;;;10.10;99.90;;;;;;5046377;28;20684;-82
2022/06/21 02:25:16;;;;;;;17.73;5.73;;;10.10;99.90;;;;;;5006515;28;20297;-83
2022/06/21 02:27:43;;;;;;;17.93;6.23;;;10.10;99.90;;;;;;5022363;28;20240;-83
2022/06/21 02:30:18;;;;;;;15.40;5.30;;;10.10;99.90;;;;;;5030711;28;20225;-82
2022/06/21 02:32:45;;;;;;;18.23;6.07;;;10.10;99.90;;;;;;5035923;28;20974;-82
2022/06/21 02:35:21;;;;;;;16.37;5.60;;;10.10;99.90;;;;;;5036035;28;20240;-82
2022/06/21 02:37:51;;;;;;;12.33;4.73;;;10.10;99.90;;;;;;5037140;28;20708;-82
2022/06/21 02:40:21;;;;;;;15.63;5.87;;;10.10;99.90;;;;;;5033872;28;20222;-84
2022/06/21 02:42:50;;;;;;;17.37;6.23;;;10.10;99.90;;;;;;5019682;28;20228;-83
2022/06/21 02:45:25;;;;;;;14.03;6.00;;;10.10;99.90;;;;;;5012176;28;20943;-83
2022/06/21 02:47:54;;;;;;;16.00;5.70;;;10.10;99.90;;;;;;5032319;28;20888;-83
2022/06/21 02:50:29;;;;;;;14.97;5.67;;;10.10;99.90;;;;;;5033112;28;20679;-84
2022/06/21 02:52:57;;;;;;;17.37;5.53;;;10.10;99.90;;;;;;5037716;28;20303;-84
2022/06/21 02:55:35;;;;;;;19.27;6.07;;;10.10;99.90;;;;;;5013032;28;20316;-84
2022/06/21 02:58:09;;;;;;;19.93;5.97;;;10.10;99.90;;;;;;5030521;28;20229;-84
2022/06/21 03:00:37;;;;;;;17.60;5.83;;;10.10;99.90;;;;;;5030306;28;20224;-84
2022/06/21 03:03:07;;;;;;;16.60;5.43;;;10.00;99.90;;;;;;5013800;28;20842;-84
2022/06/21 03:05:35;;;;;;;16.30;5.37;;;10.10;99.90;;;;;;5037217;28;20660;-83
2022/06/21 03:08:06;;;;;;;19.17;5.73;;;10.00;99.90;;;;;;5027884;28;20228;-83
2022/06/21 03:10:38;;;;;;;20.57;5.77;;;10.00;99.90;;;;;;5038199;28;20233;-83
2022/06/21 03:13:12;;;;;;;15.77;5.73;;;10.00;99.90;;;;;;5017700;28;20228;-83
2022/06/21 03:15:42;;;;;;;17.80;5.70;;;10.00;99.90;;;;;;5033245;28;20227;-81
2022/06/21 03:18:12;;;;;;;15.50;5.43;;;10.00;99.90;;;;;;5031127;28;20263;-81
2022/06/21 03:20:40;;;;;;;17.57;5.83;;;10.00;99.90;;;;;;5017966;28;20231;-81
2022/06/21 03:23:07;;;;;;;15.27;5.43;;;10.00;99.90;;;;;;5017765;28;20312;-82
2022/06/21 03:25:41;;;;;;;25.10;5.97;;;10.00;99.90;;;;;;5025686;28;20228;-82
2022/06/21 03:28:31;;;;;;;19.90;4.93;;;10.10;99.90;;;;;;5012874;28;20248;-82
2022/06/21 03:31:06;;;;;;;14.57;4.90;;;10.10;99.90;;;;;;5032406;28;20223;-83
2022/06/21 03:33:35;;;;;;;16.43;5.03;;;10.10;99.90;;;;;;5031593;28;20301;-83
2022/06/21 03:36:05;;;;;;;15.93;5.17;;;10.10;99.90;;;;;;5020269;28;20254;-83
2022/06/21 03:38:32;;;;;;;17.20;5.53;;;10.10;99.90;;;;;;5038498;28;20225;-83
2022/06/21 03:43:47;;;;;;;12.80;4.60;;;10.10;99.90;;;;;;5052076;28;20224;-81
2022/06/21 03:46:20;;;;;;;16.33;5.10;;;10.20;99.90;;;;;;5051044;28;20700;-81
2022/06/21 03:48:52;;;;;;;12.30;4.20;;;10.20;99.90;;;;;;5048549;28;20249;-82
2022/06/21 03:51:23;;;;;;;15.07;4.80;;;10.20;99.90;;;;;;5057996;28;20226;-81
2022/06/21 03:53:54;;;;;;;13.90;5.23;;;10.20;99.90;;;;;;5050536;28;20246;-82
2022/06/21 03:56:25;;;;;;;17.67;4.40;;;10.30;99.90;;;;;;5045518;28;22162;-83
2022/06/21 03:58:59;;;;;;;15.30;4.07;;;10.30;99.90;;;;;;5052759;28;20230;-82
2022/06/21 04:01:32;;;;;;;11.10;4.50;;;10.30;99.90;;;;;;5045662;28;20225;-83
2022/06/21 04:04:07;;;;;;;14.43;4.10;;;10.40;99.90;;;;;;5046357;28;20841;-84
2022/06/21 04:06:43;;;;;;;16.53;4.17;;;10.40;99.90;;;;;;5045568;28;20279;-83
2022/06/21 04:09:17;;;;;;;12.27;3.87;;;10.50;99.90;;;;;;5047239;28;20255;-84
2022/06/21 04:11:49;;;;;;;15.67;4.70;;;10.50;99.90;;;;;;5047245;28;20246;-82
2022/06/21 04:14:22;;;;;;;13.97;4.33;;;10.60;99.90;;;;;;5040457;28;20244;-82
2022/06/21 04:16:58;;;;;;;10.17;3.40;;;10.60;99.90;;;;;;5057665;28;20300;-82
2022/06/21 04:19:32;;;;;;;16.53;3.73;;;10.60;99.90;;;;;;5046004;28;20248;-83
2022/06/21 04:22:04;;;;;;;13.70;3.67;;;10.70;99.90;;;;;;5046597;28;20319;-83
2022/06/21 04:24:38;;;;;;;13.63;3.67;;;10.80;99.90;;;;;;5042962;28;20256;-82
2022/06/21 04:27:11;;;;;;;12.03;3.30;;;10.80;99.90;;;;;;5037855;28;20263;-83
2022/06/21 04:29:43;;;;;;;10.93;4.10;;;10.90;99.90;;;;;;5046770;28;20227;-83
2022/06/21 04:32:17;;;;;;;13.47;3.80;;;10.90;99.90;;;;;;5045476;28;20491;-83
2022/06/21 04:34:47;;;;;;;6.53;2.70;;;10.90;99.90;;;;;;5046556;28;20215;-83
2022/06/21 04:37:17;;;;;;;11.00;3.40;;;11.00;99.90;;;;;;5050011;28;20445;-83
2022/06/21 04:39:52;;;;;;;12.87;3.47;;;11.00;99.90;;;;;;5047233;28;20752;-83
2022/06/21 04:42:26;;;;;;;15.27;3.73;;;11.10;99.90;;;;;;5057727;28;20703;-83
2022/06/21 04:44:59;;;;;;;10.40;3.07;;;11.10;99.90;;;;;;5045319;28;20300;-83
2022/06/21 04:47:32;;;;;;;14.07;3.80;;;11.10;99.90;;;;;;5059726;28;20361;-83
2022/06/21 04:50:02;;;;;;;10.60;3.53;;;11.20;99.90;;;;;;5041950;28;20909;-81
2022/06/21 04:52:34;;;;;;;10.87;3.63;;;11.20;99.90;;;;;;5044873;28;20258;-81
2022/06/21 04:55:03;;;;;;;12.43;3.63;;;11.20;99.90;;;;;;5039781;28;20213;-82
2022/06/21 04:57:32;;;;;;;16.00;3.67;;;11.20;99.90;;;;;;5047232;28;20306;-82
2022/06/21 05:00:03;;;;;;;11.17;3.50;;;11.20;99.90;;;;;;5044516;28;20312;-84
2022/06/21 05:02:35;;;;;;;14.43;3.40;;;11.20;99.90;;;;;;5047214;28;20649;-82
2022/06/21 05:05:07;;;;;;;15.60;3.50;;;11.30;99.90;;;;;;5065601;28;20225;-82
2022/06/21 05:07:40;;;;;;;9.10;3.10;;;11.30;99.90;;;;;;5050916;28;20240;-82
2022/06/21 05:10:15;;;;;;;7.73;2.87;;;11.30;99.90;;;;;;5045617;28;20223;-82
2022/06/21 05:12:44;;;;;;;13.93;3.77;;;11.40;99.90;;;;;;5039576;28;20224;-83
2022/06/21 05:15:17;;;;;;;11.83;3.77;;;11.40;99.90;;;;;;5045270;28;20231;-82
2022/06/21 05:17:50;;;;;;;8.23;3.20;;;11.40;99.90;;;;;;5047397;28;20231;-82
2022/06/21 05:20:21;;;;;;;10.20;3.13;;;11.50;99.90;;;;;;5050661;28;20230;-85
2022/06/21 05:22:50;;;;;;;11.57;2.87;;;11.50;99.90;;;;;;5053353;28;20226;-85
2022/06/21 05:25:22;;;;;;;9.10;3.33;;;11.50;99.90;;;;;;5053481;28;20234;-85
2022/06/21 05:27:54;;;;;;;11.27;2.90;;;11.60;99.90;;;;;;5051914;28;20236;-87
2022/06/21 05:30:28;;;;;;;10.47;3.00;;;11.70;99.90;;;;;;5048013;28;20232;-85
2022/06/21 05:33:01;;;;;;;10.93;3.00;;;11.70;99.90;;;;;;5049240;28;20223;-86
2022/06/21 05:35:32;;;;;;;9.83;3.37;;;11.70;99.90;;;;;;5049056;28;20313;-85
2022/06/21 05:38:04;;;;;;;11.77;3.07;;;11.70;99.90;;;;;;5040354;28;20223;-85
2022/06/21 05:40:39;;;;;;;10.20;2.80;;;11.80;99.90;;;;;;5037859;28;20233;-83
2022/06/21 05:43:13;;;;;;;9.57;3.10;;;11.80;99.90;;;;;;5044054;28;20303;-82
2022/06/21 05:45:46;;;;;;;7.63;2.77;;;11.80;99.90;;;;;;5046525;28;20581;-83
2022/06/21 05:48:22;;;;;;;16.50;3.07;;;11.90;99.90;;;;;;5043075;28;20648;-83
2022/06/21 05:50:50;;;;;;;8.87;2.30;;;12.00;99.90;;;;;;5032863;28;20230;-83
2022/06/21 05:53:24;;;;;;;9.83;3.03;;;12.00;99.90;;;;;;5043864;28;20835;-83
2022/06/21 05:55:51;;;;;;;9.73;2.73;;;12.10;99.90;;;;;;5050003;28;20276;-84
2022/06/21 05:58:25;;;;;;;15.37;3.30;;;12.20;99.90;;;;;;5050981;28;20299;-84
2022/06/21 06:00:57;;;;;;;8.77;2.43;;;12.20;99.90;;;;;;5056573;28;20232;-83
2022/06/21 06:03:30;;;;;;;10.53;3.03;;;12.30;99.90;;;;;;5049379;28;20228;-82
2022/06/21 06:06:04;;;;;;;12.00;2.80;;;12.30;99.90;;;;;;5056857;28;20220;-81
2022/06/21 06:08:36;;;;;;;12.50;2.90;;;12.40;99.90;;;;;;5047713;28;20308;-80
2022/06/21 06:11:08;;;;;;;9.73;2.40;;;12.50;99.90;;;;;;5047906;28;20252;-81
2022/06/21 06:13:39;;;;;;;6.03;2.63;;;12.70;99.90;;;;;;5043460;28;20379;-82
2022/06/21 06:16:28;;;;;;;10.27;2.83;;;12.70;99.90;;;;;;5050793;28;20233;-82
2022/06/21 06:19:01;;;;;;;11.27;2.37;;;12.80;99.90;;;;;;5046132;28;20780;-81
2022/06/21 06:21:35;;;;;;;8.50;2.50;;;12.90;99.90;;;;;;5049282;28;20236;-80
2022/06/21 06:24:07;;;;;;;9.53;2.80;;;13.00;99.90;;;;;;5047009;28;20220;-83
2022/06/21 06:26:38;;;;;;;12.47;3.00;;;13.00;99.90;;;;;;5045196;28;20223;-84
2022/06/21 06:29:15;;;;;;;11.10;3.00;;;13.00;99.90;;;;;;5044842;28;20310;-84
2022/06/21 06:31:47;;;;;;;8.37;2.53;;;13.10;99.90;;;;;;5048228;28;20227;-84
2022/06/21 06:34:18;;;;;;;10.53;3.47;;;13.20;99.90;;;;;;5047052;28;20230;-84
2022/06/21 06:36:48;;;;;;;8.40;2.47;;;13.40;99.90;;;;;;5049340;28;20218;-85
2022/06/21 06:39:20;;;;;;;10.53;2.70;;;13.50;99.90;;;;;;5053547;28;20424;-84
2022/06/21 06:41:54;;;;;;;6.97;2.27;;;13.60;99.90;;;;;;5050144;28;20231;-87
2022/06/21 06:44:21;;;;;;;5.20;2.23;;;13.80;99.90;;;;;;5051447;28;20815;-85
2022/06/21 06:46:51;;;;;;;6.60;2.43;;;13.80;99.90;;;;;;5051403;28;20235;-84
2022/06/21 06:49:26;;;;;;;9.70;2.83;;;13.90;99.90;;;;;;5054410;28;20233;-84
2022/06/21 06:52:00;;;;;;;12.67;2.50;;;14.00;99.90;;;;;;5049288;28;20259;-84
2022/06/21 06:54:35;;;;;;;7.23;2.30;;;14.10;99.90;;;;;;5043552;28;20256;-84
2022/06/21 06:57:22;;;;;;;8.90;2.73;;;14.10;99.90;;;;;;5056446;28;20360;-84
2022/06/21 06:59:53;;;;;;;8.73;2.37;;;14.30;99.90;;;;;;5049036;28;20233;-81
2022/06/21 07:02:25;;;;;;;8.77;2.00;;;14.50;99.90;;;;;;5050837;28;20224;-81
2022/06/21 07:05:03;;;;;;;6.60;2.10;;;14.90;99.90;;;;;;5051181;28;20219;-82
2022/06/21 07:07:41;;;;;;;7.53;2.50;;;15.50;99.90;;;;;;5046502;28;20744;-81
2022/06/21 07:10:16;;;;;;;7.27;2.20;;;16.30;99.90;;;;;;5047293;28;21142;-81
2022/06/21 07:12:43;;;;;;;7.00;2.30;;;16.90;99.90;;;;;;5068434;28;20238;-82
2022/06/21 07:15:12;;;;;;;7.97;2.20;;;17.60;99.90;;;;;;5053523;28;20224;-81
2022/06/21 07:17:42;;;;;;;6.97;2.28;;;18.20;99.90;;;;;;5055914;28;20224;-80
2022/06/21 07:20:16;;;;;;;8.77;2.40;;;18.80;99.90;;;;;;5050111;28;20235;-82
2022/06/21 07:22:44;;;;;;;9.35;2.60;;;19.40;99.90;;;;;;5048849;28;20586;-81
2022/06/21 07:25:20;;;;;;;5.70;2.13;;;20.00;99.90;;;;;;5054198;28;20239;-80
2022/06/21 07:27:52;;;;;;;7.20;2.00;;;20.50;99.90;;;;;;5051235;28;20231;-80
2022/06/21 07:30:22;;;;;;;5.47;1.60;;;21.00;99.90;;;;;;5050569;28;20656;-82
2022/06/21 07:32:53;;;;;;;7.63;2.20;;;21.50;99.90;;;;;;5039855;28;20238;-81
2022/06/21 07:35:27;;;;;;;6.35;1.90;;;22.00;99.60;;;;;;5058509;28;20223;-81
2022/06/21 07:37:59;;;;;;;6.00;1.63;;;22.40;98.90;;;;;;5057334;28;20215;-83
2022/06/21 07:40:31;;;;;;;4.18;1.77;;;22.80;98.50;;;;;;5055548;28;20229;-80
2022/06/21 07:43:05;;;;;;;6.60;1.88;;;23.40;97.40;;;;;;5048672;28;20263;-80
2022/06/21 07:45:38;;;;;;;6.28;2.00;;;23.80;96.30;;;;;;5054847;28;20917;-81
2022/06/21 07:48:14;;;;;;;5.30;1.77;;;24.10;94.80;;;;;;5046395;28;20226;-81
2022/06/21 07:50:46;;;;;;;4.93;1.92;;;24.40;94.20;;;;;;5047978;28;20231;-82
2022/06/21 07:53:22;;;;;;;7.65;1.95;;;24.60;92.40;;;;;;5045131;28;20749;-82
2022/06/21 07:55:52;;;;;;;5.63;1.50;;;24.60;91.80;;;;;;5045554;28;20208;-81
2022/06/21 07:58:24;;;;;;;6.72;2.05;;;24.70;92.20;;;;;;5050621;28;20250;-81
2022/06/21 08:09:27;;;;;;;5.30;1.70;;;25.70;90.50;;;;;;5040101;28;20251;-81
2022/06/21 08:12:00;;;;;;;4.68;1.52;;;26.10;87.40;;;;;;5046267;28;20778;-81
2022/06/21 08:14:29;;;;;;;7.10;1.77;;;26.40;86.50;;;;;;5050799;28;20216;-81
2022/06/21 08:17:03;;;;;;;8.45;1.70;;;26.70;86.10;;;;;;5043886;28;20228;-82
2022/06/21 08:19:39;;;;;;;6.18;1.58;;;26.90;84.00;;;;;;5049084;28;20829;-82
2022/06/21 08:22:11;;;;;;;5.75;1.65;;;27.20;83.00;;;;;;5038867;28;20239;-83
2022/06/21 08:24:42;;;;;;;4.97;1.30;;;27.30;82.40;;;;;;5032669;28;20740;-83
2022/06/21 08:27:17;;;;;;;5.07;1.60;;;27.60;82.20;;;;;;5037551;28;20224;-82
2022/06/21 08:29:50;;;;;;;5.53;1.40;;;27.70;78.90;;;;;;5048711;28;20235;-83
2022/06/21 08:32:23;;;;;;;3.83;1.40;;;27.90;80.00;;;;;;5050146;28;20307;-82
2022/06/21 08:34:52;;;;;;;4.07;1.30;;;28.00;77.20;;;;;;5034880;28;20230;-82
2022/06/21 08:37:35;;;;;;;4.47;1.30;;;28.00;75.80;;;;;;5039970;28;20899;-82
2022/06/21 08:40:19;;;;;;;5.82;1.60;;;28.10;75.10;;;;;;5038230;28;20223;-82
2022/06/21 08:43:26;;;;;;;2.78;1.42;;;28.20;75.60;;;;;;5052910;28;20234;-82
2022/06/21 08:46:22;;;;;;;6.35;1.58;;;28.50;73.70;;;;;;5036404;28;20255;-82
2022/06/21 08:49:06;;;;;;;5.10;1.60;;;28.70;72.60;;;;;;5047286;28;20242;-82
2022/06/21 08:51:54;;;;;;;5.93;1.77;;;28.90;72.80;;;;;;5043438;28;20227;-82
2022/06/21 08:54:33;;;;;;;3.72;1.73;;;29.10;71.70;;;;;;5042807;28;20224;-83
2022/06/21 08:57:06;;;;;;;2.92;1.40;;;29.30;70.30;;;;;;5034985;28;20229;-82
2022/06/21 08:59:42;;;;;;;3.72;1.25;;;29.40;70.80;;;;;;5047358;28;20231;-83
2022/06/21 09:02:21;;;;;;;3.15;1.08;;;29.50;68.50;;;;;;5032395;28;20220;-81
2022/06/21 09:04:59;;;;;;;4.15;1.27;;;29.60;68.40;;;;;;5033827;28;20229;-82
2022/06/21 09:07:41;;;;;;;4.32;1.58;;;29.80;67.80;;;;;;5043628;28;20236;-83
2022/06/21 09:10:24;;;;;;;3.58;1.08;;;30.00;66.30;;;;;;5048376;28;20292;-82
2022/06/21 09:13:01;;;;;;;7.35;1.50;;;30.10;65.30;;;;;;5045457;28;20239;-82
2022/06/21 09:15:47;;;;;;;3.85;1.50;;;30.20;62.30;;;;;;5039517;28;20221;-82
2022/06/21 09:18:38;;;;;;;3.72;1.50;;;30.30;62.90;;;;;;5043839;28;20303;-82
2022/06/21 09:21:10;;;;;;;5.93;1.30;;;30.40;63.40;;;;;;5041599;28;20224;-82
2022/06/21 09:23:52;;;;;;;3.00;1.10;;;30.50;62.10;;;;;;5032899;28;20427;-82
2022/06/21 09:26:32;;;;;;;3.70;1.10;;;30.50;59.90;;;;;;5046351;28;20222;-83
2022/06/21 09:29:10;;;;;;;2.97;1.17;;;30.50;60.30;;;;;;5037312;28;20228;-82
2022/06/21 09:31:45;;;;;;;4.63;1.40;;;30.50;58.80;;;;;;5037799;28;20657;-81
2022/06/21 09:34:20;;;;;;;4.25;1.33;;;30.60;58.80;;;;;;5041558;28;20342;-82
2022/06/21 09:36:54;;;;;;;3.70;1.48;;;30.70;59.00;;;;;;5034908;28;20215;-82
2022/06/21 09:42:07;;;;;;;2.88;1.33;;;30.90;59.40;;;;;;5039860;28;20302;-81
2022/06/21 09:44:41;;;;;;;2.72;1.40;;;31.00;57.90;;;;;;5020808;28;20803;-82
2022/06/21 09:47:17;;;;;;;4.22;1.50;;;31.10;57.40;;;;;;5026332;28;20715;-81
2022/06/21 09:49:50;;;;;;;3.05;1.30;;;31.00;57.00;;;;;;5026111;28;20274;-84
2022/06/21 09:52:37;;;;;;;3.05;1.13;;;31.00;58.30;;;;;;5026099;28;20263;-84
2022/06/21 09:55:13;;;;;;;2.55;1.00;;;31.00;57.60;;;;;;5024708;28;20221;-84
2022/06/21 09:57:48;;;;;;;4.53;1.50;;;31.00;56.70;;;;;;5022667;28;20228;-82
2022/06/21 10:00:22;;;;;;;2.92;1.02;;;30.70;54.70;;;;;;5020791;28;20225;-83
2022/06/21 10:03:04;;;;;;;3.25;1.20;;;30.60;56.10;;;;;;5026213;28;20527;-83
2022/06/21 10:05:36;;;;;;;3.92;1.55;;;30.40;56.70;;;;;;5027238;28;20754;-83
2022/06/21 10:08:23;;;;;;;3.20;1.13;;;30.30;56.40;;;;;;5031554;28;20224;-83
2022/06/21 10:11:04;;;;;;;3.28;1.10;;;30.20;55.90;;;;;;5025979;28;20224;-84
2022/06/21 10:13:58;;;;;;;4.28;1.20;;;29.80;55.20;;;;;;5023399;28;20232;-83
2022/06/21 10:16:55;;;;;;;2.35;1.17;;;29.50;56.20;;;;;;5025018;28;20681;-83
2022/06/21 10:19:35;;;;;;;3.63;1.20;;;29.00;55.80;;;;;;5023846;28;20681;-83
2022/06/21 10:22:26;;;;;;;4.82;1.60;;;28.60;56.50;;;;;;5031267;28;20232;-83
2022/06/21 10:25:22;;;;;;;3.63;1.27;;;28.30;57.20;;;;;;5036265;28;20235;-83
2022/06/21 10:28:13;;;;;;;3.78;1.40;;;28.00;57.70;;;;;;5020657;28;20236;-83
2022/06/21 10:31:03;;;;;;;3.13;1.17;;;27.90;59.20;;;;;;5042028;28;20308;-83
2022/06/21 10:33:57;;;;;;;4.28;1.70;;;27.90;58.10;;;;;;5030813;28;20229;-83
2022/06/21 10:36:42;;;;;;;3.78;1.40;;;28.00;59.20;;;;;;5021812;28;20279;-83
2022/06/21 10:39:23;;;;;;;3.03;1.10;;;28.20;57.40;;;;;;5024509;28;20283;-83
2022/06/21 10:45:05;;;;;;;4.95;1.02;;;28.80;56.60;;;;;;5028005;28;20284;-83
2022/06/21 10:47:46;;;;;;;2.83;1.20;;;29.20;56.50;;;;;;5029416;28;20228;-83
2022/06/21 10:50:29;;;;;;;4.03;1.23;;;29.60;56.10;;;;;;5023614;28;20221;-83
2022/06/21 10:53:24;;;;;;;4.18;1.33;;;30.00;55.60;;;;;;5027427;28;20751;-83
2022/06/21 10:58:56;;;;;;;3.97;1.50;;;29.80;53.30;;;;;;5027210;28;20520;-83
2022/06/21 11:01:31;;;;;;;3.72;1.80;;;29.60;53.80;;;;;;5027863;28;20228;-83
2022/06/21 11:04:18;;;;;;;3.70;1.30;;;29.40;53.30;;;;;;5019247;28;20217;-83
2022/06/21 11:06:52;;;;;;;1.88;1.17;;;29.30;53.80;;;;;;5029105;28;20279;-83
2022/06/21 11:09:25;;;;;;;3.08;1.23;;;29.20;54.40;;;;;;5024366;28;20233;-83
2022/06/21 11:11:56;;;;;;;5.28;1.40;;;29.30;54.40;;;;;;5025862;28;20220;-83
2022/06/21 11:14:36;;;;;;;2.72;1.35;;;29.40;54.70;;;;;;5029361;28;20282;-82
2022/06/21 11:17:13;;;;;;;4.18;1.30;;;29.40;54.30;;;;;;5027372;28;20547;-83
2022/06/21 11:19:52;;;;;;;4.50;1.50;;;29.50;53.90;;;;;;5036579;28;20255;-83
2022/06/21 11:22:38;;;;;;;2.05;1.30;;;29.50;54.10;;;;;;5029226;28;20256;-83
2022/06/21 11:25:19;;;;;;;4.10;1.30;;;29.50;53.00;;;;;;5025022;28;20244;-83
2022/06/21 11:27:54;;;;;;;3.17;1.45;;;29.60;53.60;;;;;;5028569;28;20241;-83
2022/06/21 11:30:30;;;;;;;3.50;1.42;;;29.80;53.40;;;;;;5023731;28;20233;-84
2022/06/21 11:33:06;;;;;;;3.08;1.20;;;29.90;52.00;;;;;;5043272;28;20222;-83
2022/06/21 11:35:41;;;;;;;2.70;1.17;;;30.00;51.70;;;;;;5028821;28;20232;-83
2022/06/21 11:38:32;;;;;;;3.53;1.20;;;30.00;52.10;;;;;;5028172;28;20240;-83
2022/06/21 11:41:05;;;;;;;4.43;1.55;;;30.10;51.40;;;;;;5022643;28;20241;-83
2022/06/21 11:43:54;;;;;;;4.55;1.27;;;30.20;52.50;;;;;;5032262;28;20227;-83
2022/06/21 11:46:30;;;;;;;2.90;1.10;;;30.30;52.40;;;;;;5022923;28;20229;-83
2022/06/21 11:49:40;;;;;;;3.75;1.33;;;30.40;52.20;;;;;;5030090;28;20220;-83
2022/06/21 11:52:44;;;;;;;3.42;1.35;;;30.50;52.30;;;;;;5023417;28;20240;-83
2022/06/21 11:55:21;;;;;;;5.53;1.77;;;30.60;52.10;;;;;;5022715;28;20231;-83
2022/06/21 11:57:53;;;;;;;4.32;1.40;;;30.60;51.70;;;;;;5038360;28;20595;-83
2022/06/21 12:00:26;;;;;;;3.05;1.42;;;30.70;51.70;;;;;;5029766;28;20220;-83
2022/06/21 12:02:57;;;;;;;3.83;1.75;;;30.70;50.50;;;;;;5025293;28;20229;-84
2022/06/21 12:05:35;;;;;;;2.42;1.20;;;30.80;50.40;;;;;;5028319;28;20250;-83
2022/06/21 12:08:12;;;;;;;3.80;1.48;;;30.90;50.70;;;;;;5021182;28;20225;-82
2022/06/21 12:10:49;;;;;;;2.58;1.17;;;31.00;50.60;;;;;;5037790;28;20232;-80
2022/06/21 12:13:34;;;;;;;3.88;1.48;;;31.10;50.60;;;;;;5023002;28;20221;-81
2022/06/21 12:16:31;;;;;;;3.30;1.30;;;31.10;49.90;;;;;;5027878;28;20303;-79
2022/06/21 12:19:02;;;;;;;5.15;1.48;;;30.90;50.20;;;;;;5022214;28;20217;-82
2022/06/21 12:21:32;;;;;;;2.97;1.30;;;30.80;50.20;;;;;;5031125;28;20232;-82
2022/06/21 12:24:04;;;;;;;2.85;1.20;;;30.50;50.50;;;;;;5027253;28;20224;-82
2022/06/21 12:26:33;;;;;;;2.85;1.20;;;30.10;50.60;;;;;;5036757;28;20248;-82
2022/06/21 12:29:03;;;;;;;2.42;1.15;;;29.80;51.20;;;;;;5029763;28;20225;-82
2022/06/21 12:31:32;;;;;;;2.92;1.25;;;29.70;51.10;;;;;;5032181;28;20245;-82
2022/06/21 12:34:03;;;;;;;3.30;1.52;;;29.60;51.10;;;;;;5030687;28;20240;-83
2022/06/21 12:36:42;;;;;;;5.05;1.80;;;29.70;51.80;;;;;;5033675;28;20271;-82
2022/06/21 12:39:16;;;;;;;1.98;1.30;;;29.80;51.20;;;;;;5032875;28;20283;-82
2022/06/21 12:42:00;;;;;;;3.22;1.30;;;29.90;50.60;;;;;;5032554;28;20226;-82
2022/06/21 12:44:38;;;;;;;2.47;1.35;;;30.00;50.20;;;;;;5027208;28;20587;-82
2022/06/21 12:47:19;;;;;;;3.38;1.33;;;30.10;50.60;;;;;;5028245;28;20224;-82
2022/06/21 12:50:16;;;;;;;4.57;1.55;;;30.10;50.10;;;;;;5030483;28;20239;-82
2022/06/21 12:52:48;;;;;;;3.13;1.58;;;30.20;49.90;;;;;;5031418;28;20227;-82
2022/06/21 12:55:25;;;;;;;3.53;1.15;;;30.20;50.40;;;;;;5043948;28;20256;-82
2022/06/21 12:58:04;;;;;;;3.97;1.40;;;30.20;50.50;;;;;;5027039;28;20288;-82
2022/06/21 13:00:40;;;;;;;4.40;1.40;;;30.20;49.90;;;;;;5049312;28;21010;-83
2022/06/21 13:03:48;;;;;;;2.22;1.10;;;30.20;50.10;;;;;;5026570;28;20305;-81
2022/06/21 13:06:28;;;;;;;3.97;1.25;;;30.30;50.20;;;;;;5036247;28;20224;-81
2022/06/21 13:09:22;;;;;;;4.60;1.70;;;30.30;50.00;;;;;;5032723;28;20227;-80
2022/06/21 13:12:05;;;;;;;3.28;1.38;;;30.40;49.40;;;;;;5047596;28;20226;-80
2022/06/21 13:15:30;;;;;;;3.33;1.23;;;30.50;48.80;;;;;;5031518;28;20228;-80
2022/06/21 13:18:14;;;;;;;3.53;1.35;;;30.50;50.10;;;;;;4985168;28;20286;-80
2022/06/21 13:20:49;;;;;;;2.72;1.48;;;30.40;49.60;;;;;;4968927;28;20586;-80
2022/06/21 13:23:24;;;;;;;5.13;1.58;;;30.30;49.90;;;;;;5013136;28;20228;-80
2022/06/21 13:25:57;;;;;;;6.65;1.67;;;30.20;50.10;;;;;;5039937;28;20707;-81
2022/06/21 13:28:41;;;;;;;2.90;1.20;;;30.10;50.00;;;;;;5032326;28;20228;-81
2022/06/21 13:31:13;;;;;;;3.38;1.23;;;30.00;49.60;;;;;;5030347;28;20227;-81
2022/06/21 13:34:04;;;;;;;3.08;1.50;;;30.00;50.50;;;;;;5020104;28;20228;-82
2022/06/21 13:36:39;;;;;;;3.75;1.40;;;30.00;50.40;;;;;;5025007;28;20232;-80
2022/06/21 13:39:21;;;;;;;4.75;1.33;;;30.00;49.90;;;;;;5030042;28;20220;-81
2022/06/21 13:44:44;;;;;;;3.47;1.42;;;30.00;49.20;;;;;;5026998;28;20228;-80
2022/06/21 13:47:16;;;;;;;3.58;1.20;;;29.90;48.70;;;;;;5026373;28;20224;-80